createdAt,value
2019-01-29T19:11:00.514Z,2.20
2019-01-29T19:13:29.857Z,2.20
2019-01-29T19:15:58.907Z,2.30
2019-01-29T19:18:28.271Z,2.30
2019-01-29T19:21:01.782Z,2.30
2019-01-29T19:23:30.909Z,2.30
2019-01-29T19:25:59.972Z,2.30
2019-01-29T19:28:29.032Z,2.30
2019-01-29T19:30:58.124Z,2.20
2019-01-29T19:33:27.213Z,2.20
2019-01-29T19:35:56.270Z,2.30
2019-01-29T19:38:25.334Z,2.30
2019-01-29T19:40:54.766Z,2.30
2019-01-29T19:43:24.063Z,2.30
2019-01-29T19:45:53.115Z,2.30
2019-01-29T19:48:22.178Z,2.30
2019-01-29T19:50:51.232Z,2.30
2019-01-29T19:53:20.316Z,2.30
2019-01-29T19:55:49.381Z,2.30
2019-01-29T19:58:18.445Z,2.30
2019-01-29T20:00:47.499Z,2.20
2019-01-29T20:03:16.749Z,2.20
2019-01-29T20:05:45.798Z,2.20
2019-01-29T20:08:14.855Z,2.30
2019-01-29T20:10:43.916Z,2.30
2019-01-29T20:13:12.986Z,2.30
2019-01-29T20:15:42.366Z,2.30
2019-01-29T20:18:11.418Z,2.30
2019-01-29T20:20:41.811Z,2.30
2019-01-29T20:23:10.869Z,2.30
2019-01-29T20:25:39.923Z,2.30
2019-01-29T20:28:08.989Z,2.30
2019-01-29T20:30:40.048Z,2.30
2019-01-29T20:33:09.186Z,2.30
2019-01-29T20:35:38.234Z,2.30
2019-01-29T20:38:07.289Z,2.30
2019-01-29T20:40:36.342Z,2.30
2019-01-29T20:43:05.394Z,2.30
2019-01-29T20:45:34.442Z,2.20
2019-01-29T20:48:03.499Z,2.30
2019-01-29T20:50:35.751Z,2.20
2019-01-29T20:53:04.797Z,2.20
2019-01-29T20:55:33.845Z,2.20
2019-01-29T20:58:02.895Z,2.20
2019-01-29T21:00:37.943Z,2.20
2019-01-29T21:03:07.018Z,2.20
2019-01-29T21:05:36.071Z,2.20
2019-01-29T21:08:05.189Z,2.20
2019-01-29T21:10:34.242Z,2.20
2019-01-29T21:13:03.292Z,2.20
2019-01-29T21:15:38.593Z,2.20
2019-01-29T21:18:03.126Z,2.20
2019-01-29T21:20:33.122Z,2.20
2019-01-29T21:23:02.171Z,2.20
2019-01-29T21:25:31.221Z,2.20
2019-01-29T21:28:00.337Z,2.20
2019-01-29T21:30:35.237Z,2.20
2019-01-29T21:33:04.295Z,2.20
2019-01-29T21:35:33.337Z,2.20
2019-01-29T21:38:02.403Z,2.20
2019-01-29T21:40:31.462Z,2.20
2019-01-29T21:43:01.662Z,2.20
2019-01-29T21:45:30.714Z,2.10
2019-01-29T21:48:01.197Z,2.10
2019-01-29T21:50:35.121Z,2.10
2019-01-29T21:53:04.170Z,2.10
2019-01-29T21:55:33.228Z,2.10
2019-01-29T21:58:02.280Z,2.10
2019-01-29T22:00:40.209Z,2.10
2019-01-29T22:03:09.447Z,2.10
2019-01-29T22:05:38.482Z,2.00
2019-01-29T22:08:08.275Z,2.00
2019-01-29T22:10:37.302Z,2.00
2019-01-29T22:13:07.654Z,2.00
2019-01-29T22:15:36.710Z,2.00
2019-01-29T22:18:06.671Z,2.00
2019-01-29T22:20:35.727Z,2.00
2019-01-29T22:23:04.779Z,1.90
2019-01-29T22:25:35.743Z,2.00
2019-01-29T22:28:05.247Z,2.00
2019-01-29T22:30:40.125Z,1.90
2019-01-29T22:33:09.182Z,1.90
2019-01-29T22:35:38.242Z,1.80
2019-01-29T22:38:07.293Z,1.80
2019-01-29T22:40:36.348Z,1.80
2019-01-29T22:43:05.687Z,1.80
2019-01-29T22:45:34.739Z,1.80
2019-01-29T22:48:04.590Z,1.80
2019-01-29T22:50:37.312Z,1.80
2019-01-29T22:53:06.455Z,1.80
2019-01-29T22:55:36.022Z,1.80
2019-01-29T22:58:05.984Z,1.80
2019-01-29T23:00:59.067Z,1.80
2019-01-29T23:03:32.809Z,1.70
2019-01-29T23:06:12.254Z,1.80
2019-01-29T23:08:44.034Z,1.70
2019-01-29T23:11:13.206Z,1.70
2019-01-29T23:13:42.404Z,1.70
2019-01-29T23:16:11.464Z,1.70
2019-01-29T23:18:40.514Z,1.70
2019-01-29T23:21:09.566Z,1.60
2019-01-29T23:23:38.615Z,1.60
2019-01-29T23:26:07.670Z,1.60
2019-01-29T23:28:36.723Z,1.60
2019-01-29T23:31:05.801Z,1.60
2019-01-29T23:33:36.024Z,1.70
2019-01-29T23:36:06.377Z,1.60
2019-01-29T23:38:35.616Z,1.60
2019-01-29T23:41:04.683Z,1.60
2019-01-29T23:43:33.736Z,1.60
2019-01-29T23:46:02.881Z,1.60
2019-01-29T23:48:31.925Z,1.60
2019-01-29T23:51:00.978Z,1.60
2019-01-29T23:53:30.040Z,1.60
2019-01-29T23:55:59.113Z,1.60
2019-01-29T23:58:28.191Z,1.50
